createdAt,value
2018-04-08T03:01:41.751Z,99.90
2018-04-08T03:04:10.843Z,99.90
2018-04-08T03:06:39.903Z,99.90
2018-04-08T03:09:08.236Z,99.90
2018-04-08T03:11:36.548Z,99.90
2018-04-08T03:14:04.888Z,99.90
2018-04-08T03:16:33.943Z,99.90
2018-04-08T03:19:02.286Z,99.90
2018-04-08T03:21:30.581Z,99.90
2018-04-08T03:23:58.965Z,99.90
2018-04-08T03:26:28.090Z,99.90
2018-04-08T03:28:56.391Z,99.90
2018-04-08T03:31:24.725Z,99.90
2018-04-08T03:33:53.035Z,99.90
2018-04-08T03:36:22.130Z,99.90
2018-04-08T03:38:51.187Z,99.90
2018-04-08T03:41:19.530Z,99.90
2018-04-08T03:43:47.830Z,99.90
2018-04-08T03:46:16.154Z,99.90
2018-04-08T03:48:45.215Z,99.90
2018-04-08T03:51:13.544Z,99.90
2018-04-08T03:53:42.603Z,99.90
2018-04-08T03:56:11.019Z,99.90
2018-04-08T03:58:40.073Z,99.90
2018-04-08T04:01:08.417Z,99.90
2018-04-08T04:03:36.711Z,99.90
2018-04-08T04:06:05.079Z,99.90
2018-04-08T04:08:33.380Z,99.90
2018-04-08T04:11:01.710Z,99.90
2018-04-08T04:13:30.030Z,99.90
2018-04-08T04:15:58.322Z,99.90
2018-04-08T04:18:39.292Z,99.90
2018-04-08T04:21:19.512Z,99.90
2018-04-08T04:23:59.710Z,99.90
2018-04-08T04:26:30.914Z,99.90
2018-04-08T04:28:59.242Z,99.90
2018-04-08T04:31:27.815Z,99.90
2018-04-08T04:33:56.147Z,99.90
2018-04-08T04:36:24.459Z,99.90
2018-04-08T04:38:52.795Z,99.90
2018-04-08T04:41:21.101Z,99.90
2018-04-08T04:43:49.431Z,99.90
2018-04-08T04:46:18.492Z,99.90
2018-04-08T04:48:46.813Z,99.90
2018-04-08T04:51:15.141Z,99.90
2018-04-08T04:53:44.261Z,99.90
2018-04-08T04:56:12.679Z,99.90
2018-04-08T04:58:40.995Z,99.90
2018-04-08T05:01:09.306Z,99.90
2018-04-08T05:03:38.415Z,99.90
2018-04-08T05:06:06.716Z,99.90
2018-04-08T05:08:35.047Z,99.90
2018-04-08T05:11:04.117Z,99.90
2018-04-08T05:13:32.451Z,99.90
2018-04-08T05:16:00.781Z,99.90
2018-04-08T05:18:29.088Z,99.90
2018-04-08T05:20:58.171Z,99.90
2018-04-08T05:23:27.246Z,99.90
2018-04-08T05:25:55.571Z,99.90
2018-04-08T05:28:23.872Z,99.90
2018-04-08T05:30:52.201Z,99.90
2018-04-08T05:33:21.258Z,99.90
2018-04-08T05:35:49.771Z,99.90
2018-04-08T05:38:18.074Z,99.90
2018-04-08T05:40:46.402Z,99.90
2018-04-08T05:43:14.711Z,99.90
2018-04-08T05:45:51.572Z,99.90
2018-04-08T05:48:19.880Z,99.90
2018-04-08T05:50:48.214Z,99.90
2018-04-08T05:53:16.542Z,99.90
2018-04-08T05:55:45.619Z,99.90
2018-04-08T05:58:14.686Z,99.90
2018-04-08T06:00:43.010Z,99.90
2018-04-08T06:03:12.066Z,99.90
2018-04-08T06:05:40.383Z,99.90
2018-04-08T06:08:08.684Z,99.90
2018-04-08T06:10:37.010Z,99.90
2018-04-08T06:13:05.307Z,99.90
2018-04-08T06:15:34.396Z,99.90
2018-04-08T06:18:03.464Z,99.90
2018-04-08T06:20:31.788Z,99.90
2018-04-08T06:23:00.083Z,99.90
2018-04-08T06:25:28.406Z,99.90
2018-04-08T06:27:56.712Z,99.90
2018-04-08T06:30:25.816Z,99.90
2018-04-08T06:32:54.152Z,99.90
2018-04-08T06:35:22.468Z,99.90
2018-04-08T06:37:50.801Z,99.90
2018-04-08T06:40:19.106Z,99.90
2018-04-08T06:42:48.212Z,99.90
2018-04-08T06:45:17.275Z,99.90
2018-04-08T06:47:45.601Z,99.90
2018-04-08T06:50:13.907Z,99.90
2018-04-08T06:52:42.239Z,99.90
2018-04-08T06:55:11.309Z,99.90
2018-04-08T06:57:39.630Z,99.90
2018-04-08T07:00:07.938Z,99.90
2018-04-08T07:02:36.272Z,99.90
2018-04-08T07:05:04.600Z,99.90
2018-04-08T07:07:32.936Z,99.90
2018-04-08T07:10:01.254Z,99.90
2018-04-08T07:12:29.588Z,99.90
2018-04-08T07:14:57.901Z,99.90
2018-04-08T07:17:26.226Z,99.90
2018-04-08T07:19:55.306Z,99.90
2018-04-08T07:22:23.627Z,99.90
2018-04-08T07:24:51.938Z,99.90
2018-04-08T07:27:20.276Z,99.90
2018-04-08T07:29:48.583Z,99.90
2018-04-08T07:32:17.711Z,99.90
2018-04-08T07:34:46.012Z,99.90
2018-04-08T07:37:15.080Z,99.90
2018-04-08T07:39:43.413Z,99.90
2018-04-08T07:42:11.719Z,99.90
2018-04-08T07:44:40.169Z,99.90
2018-04-08T07:47:08.481Z,99.90
2018-04-08T07:49:36.870Z,99.90
2018-04-08T07:52:05.176Z,99.90
2018-04-08T07:54:34.286Z,99.90
2018-04-08T07:57:02.594Z,99.90
2018-04-08T07:59:30.924Z,99.90
2018-04-08T08:02:00.092Z,99.90
2018-04-08T08:04:28.425Z,99.90
2018-04-08T08:06:56.744Z,99.90
2018-04-08T08:09:25.086Z,99.90
2018-04-08T08:11:53.391Z,99.90
2018-04-08T08:14:21.726Z,99.90
2018-04-08T08:16:50.033Z,99.90
2018-04-08T08:19:18.374Z,99.90
2018-04-08T08:21:47.446Z,99.90
2018-04-08T08:24:15.789Z,99.90
2018-04-08T08:26:44.101Z,99.90
2018-04-08T08:29:12.503Z,99.90
2018-04-08T08:31:40.841Z,99.90
2018-04-08T08:34:09.153Z,99.90
2018-04-08T08:36:38.256Z,99.90
2018-04-08T08:39:06.574Z,99.90
2018-04-08T08:41:34.910Z,99.90
2018-04-08T08:44:03.223Z,99.90
2018-04-08T08:46:31.547Z,99.90
2018-04-08T08:49:00.628Z,99.90
2018-04-08T08:51:28.995Z,99.90
2018-04-08T08:53:57.347Z,99.90
2018-04-08T08:56:25.686Z,99.90
2018-04-08T08:58:54.755Z,99.90
2018-04-08T09:01:23.095Z,99.90
2018-04-08T09:03:51.418Z,99.90
2018-04-08T09:06:19.769Z,99.90
2018-04-08T09:08:54.895Z,99.90
2018-04-08T09:11:23.218Z,99.90
2018-04-08T09:13:51.536Z,99.90
2018-04-08T09:16:19.928Z,99.90
2018-04-08T09:19:00.538Z,99.90
2018-04-08T09:21:28.872Z,99.90
2018-04-08T09:23:57.197Z,99.90
2018-04-08T09:26:25.558Z,99.90
2018-04-08T09:28:53.884Z,99.90
2018-04-08T09:31:22.225Z,99.90
2018-04-08T09:33:51.332Z,99.90
2018-04-08T09:36:20.613Z,99.90
2018-04-08T09:38:49.248Z,99.90
2018-04-08T09:41:17.647Z,99.90
2018-04-08T09:43:45.990Z,99.90
2018-04-08T09:46:14.305Z,99.90
2018-04-08T09:48:42.645Z,99.90
2018-04-08T09:51:11.729Z,99.90
2018-04-08T09:53:40.844Z,99.90
2018-04-08T09:56:09.172Z,99.90
2018-04-08T09:58:38.445Z,99.90
2018-04-08T10:01:26.456Z,99.90
2018-04-08T10:03:54.796Z,99.90
2018-04-08T10:06:23.117Z,99.90
2018-04-08T10:08:51.453Z,99.90
2018-04-08T10:11:19.764Z,99.90
2018-04-08T10:13:48.861Z,99.90
2018-04-08T10:16:17.177Z,99.90
2018-04-08T10:18:45.519Z,99.90
2018-04-08T10:21:14.584Z,99.90
2018-04-08T10:23:43.075Z,99.90
2018-04-08T10:26:12.155Z,99.90
2018-04-08T10:28:40.496Z,99.90
2018-04-08T10:31:08.803Z,99.90
2018-04-08T10:33:37.142Z,99.90
2018-04-08T10:36:05.468Z,99.90
2018-04-08T10:38:33.795Z,99.90
2018-04-08T10:41:02.106Z,99.90
2018-04-08T10:43:30.447Z,99.90
2018-04-08T10:45:58.760Z,99.90
2018-04-08T10:48:27.120Z,99.90
2018-04-08T10:50:55.452Z,99.90
2018-04-08T10:53:24.562Z,99.90
2018-04-08T10:55:53.663Z,99.90
2018-04-08T10:58:21.995Z,99.90
2018-04-08T11:00:50.336Z,99.90
2018-04-08T11:03:18.672Z,99.90
2018-04-08T11:05:47.786Z,99.90
2018-04-08T11:08:16.120Z,99.90
2018-04-08T11:10:44.462Z,99.90
2018-04-08T11:13:12.776Z,99.90
2018-04-08T11:15:41.877Z,99.70
2018-04-08T11:18:10.180Z,99.60
2018-04-08T11:20:39.274Z,99.20
2018-04-08T11:23:08.361Z,99.20
2018-04-08T11:25:36.693Z,99.30
2018-04-08T11:28:05.002Z,99.70
2018-04-08T11:30:33.506Z,98.10
2018-04-08T11:33:02.583Z,97.70
2018-04-08T11:35:30.948Z,97.80
2018-04-08T11:37:59.255Z,97.40
2018-04-08T11:40:28.336Z,98.30
2018-04-08T11:42:56.676Z,98.40
2018-04-08T11:45:24.987Z,97.30
2018-04-08T11:47:53.332Z,95.60
2018-04-08T11:50:21.650Z,95.40
2018-04-08T11:52:49.988Z,98.10
2018-04-08T11:55:18.309Z,95.70
2018-04-08T11:57:47.415Z,95.80
2018-04-08T12:00:16.495Z,95.90
2018-04-08T12:02:44.823Z,95.80
2018-04-08T12:05:13.145Z,94.00
2018-04-08T12:07:41.486Z,93.40
2018-04-08T12:10:09.818Z,93.20
2018-04-08T12:12:38.179Z,93.80
2018-04-08T12:15:06.482Z,94.20
2018-04-08T12:17:35.588Z,92.60
2018-04-08T12:20:04.669Z,93.70
2018-04-08T12:22:33.765Z,94.10
2018-04-08T12:25:02.857Z,92.10
2018-04-08T12:27:31.200Z,92.10
2018-04-08T12:29:59.518Z,91.90
2018-04-08T12:32:28.587Z,91.00
2018-04-08T12:34:56.927Z,91.00
2018-04-08T12:37:25.242Z,92.10
2018-04-08T12:39:53.579Z,90.80
2018-04-08T12:42:21.898Z,90.20
2018-04-08T12:44:50.236Z,90.00
2018-04-08T12:47:18.539Z,91.60
2018-04-08T12:49:46.878Z,88.10
2018-04-08T12:52:15.179Z,88.90
2018-04-08T12:54:43.506Z,89.20
2018-04-08T12:57:11.815Z,90.50
2018-04-08T12:59:40.145Z,88.40
2018-04-08T13:02:08.470Z,90.50
2018-04-08T13:04:36.825Z,89.80
2018-04-08T13:07:05.931Z,91.20
2018-04-08T13:09:35.036Z,88.00
2018-04-08T13:12:03.360Z,88.10
2018-04-08T13:14:31.672Z,88.60
2018-04-08T13:17:00.770Z,89.60
2018-04-08T13:19:29.857Z,83.90
2018-04-08T13:21:58.237Z,83.90
2018-04-08T13:24:26.521Z,86.50
2018-04-08T13:26:55.629Z,82.60
2018-04-08T13:29:24.700Z,82.10
2018-04-08T13:31:53.102Z,82.10
2018-04-08T13:34:22.183Z,82.70
2018-04-08T13:36:51.297Z,82.10
2018-04-08T13:39:20.383Z,82.50
2018-04-08T13:41:49.484Z,82.90
2018-04-08T13:44:18.570Z,82.60
2018-04-08T13:46:47.667Z,83.20
2018-04-08T13:49:16.751Z,81.00
2018-04-08T13:51:45.101Z,80.90
2018-04-08T13:54:13.429Z,84.60
2018-04-08T13:56:42.503Z,77.60
2018-04-08T13:59:10.837Z,77.60
2018-04-08T14:01:39.155Z,77.20
2018-04-08T14:04:07.480Z,78.50
2018-04-08T14:06:35.807Z,78.10
2018-04-08T14:09:04.159Z,77.30
2018-04-08T14:11:32.482Z,77.70
2018-04-08T14:14:01.597Z,76.40
2018-04-08T14:16:29.907Z,76.30
2018-04-08T14:18:58.249Z,75.00
2018-04-08T14:21:26.548Z,77.90
2018-04-08T14:23:54.887Z,75.00
2018-04-08T14:26:23.224Z,75.70
2018-04-08T14:28:52.340Z,73.00
2018-04-08T14:31:20.664Z,73.10
2018-04-08T14:33:48.962Z,75.00
2018-04-08T14:36:17.288Z,75.10
2018-04-08T14:38:46.368Z,76.00
2018-04-08T14:41:14.696Z,75.90
2018-04-08T14:43:43.004Z,76.20
2018-04-08T14:46:12.118Z,75.50
2018-04-08T14:48:40.421Z,76.00
2018-04-08T14:51:08.763Z,72.70
2018-04-08T14:53:37.101Z,71.40
2018-04-08T14:56:05.452Z,72.90
2018-04-08T14:58:33.766Z,72.20
2018-04-08T15:01:02.934Z,72.70
2018-04-08T15:03:32.009Z,72.10
2018-04-08T15:06:00.360Z,72.20
2018-04-08T15:08:28.701Z,71.20
2018-04-08T15:10:57.967Z,72.40
2018-04-08T15:13:26.282Z,73.00
2018-04-08T15:15:54.638Z,73.10
2018-04-08T15:18:23.716Z,72.10
2018-04-08T15:20:52.046Z,72.10
2018-04-08T15:23:20.347Z,72.80
2018-04-08T15:25:48.694Z,72.30
2018-04-08T15:28:17.014Z,72.90
2018-04-08T15:30:46.250Z,72.70
2018-04-08T15:33:15.328Z,74.20
2018-04-08T15:35:43.642Z,74.10
2018-04-08T15:38:11.975Z,73.10
2018-04-08T15:40:40.278Z,73.20
2018-04-08T15:43:09.391Z,72.60
2018-04-08T15:45:37.714Z,72.30
2018-04-08T15:48:06.054Z,71.80
2018-04-08T15:50:34.367Z,72.30
2018-04-08T15:53:02.747Z,72.70
2018-04-08T15:55:31.050Z,72.80
2018-04-08T15:58:00.149Z,74.50
2018-04-08T16:00:29.229Z,73.50
2018-04-08T16:02:57.557Z,73.50
2018-04-08T16:05:25.909Z,73.20
2018-04-08T16:07:54.253Z,72.50
2018-04-08T16:10:22.554Z,72.40
2018-04-08T16:12:50.894Z,72.30
2018-04-08T16:15:19.200Z,72.40
2018-04-08T16:17:49.037Z,73.90
2018-04-08T16:20:18.126Z,73.60
2018-04-08T16:22:47.204Z,73.80
2018-04-08T16:25:15.535Z,73.80
2018-04-08T16:27:43.879Z,73.60
2018-04-08T16:30:12.196Z,73.50
2018-04-08T16:32:40.508Z,73.00
2018-04-08T16:35:09.335Z,72.90
2018-04-08T16:37:37.643Z,73.90
2018-04-08T16:40:06.830Z,72.50
2018-04-08T16:42:35.148Z,73.10
2018-04-08T16:45:03.504Z,73.70
2018-04-08T16:47:32.820Z,73.80
2018-04-08T16:50:01.161Z,73.40
2018-04-08T16:52:29.568Z,73.10
2018-04-08T16:54:58.052Z,73.10
2018-04-08T16:57:26.361Z,73.90
2018-04-08T16:59:54.663Z,73.30
2018-04-08T17:02:22.990Z,74.00
2018-04-08T17:04:51.519Z,73.90
2018-04-08T17:07:20.680Z,74.40
2018-04-08T17:09:49.763Z,74.90
2018-04-08T17:12:18.110Z,74.90
2018-04-08T17:14:46.415Z,75.90
2018-04-08T17:17:14.743Z,77.20
2018-04-08T17:19:43.824Z,78.90
2018-04-08T17:22:12.936Z,80.20
2018-04-08T17:24:41.280Z,80.20
2018-04-08T17:27:09.621Z,82.20
2018-04-08T17:29:37.929Z,82.80
2018-04-08T17:32:06.313Z,83.00
2018-04-08T17:34:34.614Z,84.30
2018-04-08T17:37:03.712Z,84.40
2018-04-08T17:39:32.784Z,85.60
2018-04-08T17:42:01.117Z,85.60
2018-04-08T17:44:29.428Z,85.90
2018-04-08T17:46:57.758Z,87.00
2018-04-08T17:49:26.080Z,87.10
2018-04-08T17:51:54.420Z,86.60
2018-04-08T17:54:22.744Z,87.10
2018-04-08T17:56:51.051Z,87.20
2018-04-08T17:59:20.152Z,87.70
2018-04-08T18:01:49.223Z,88.00
2018-04-08T18:04:18.336Z,88.00
2018-04-08T18:06:47.466Z,89.40
2018-04-08T18:09:15.839Z,89.40
2018-04-08T18:11:44.155Z,90.10
2018-04-08T18:14:12.502Z,91.00
2018-04-08T18:16:40.813Z,92.30
2018-04-08T18:19:09.138Z,92.30
2018-04-08T18:21:37.481Z,92.60
2018-04-08T18:24:05.822Z,93.10
2018-04-08T18:26:34.128Z,94.00
2018-04-08T18:29:02.461Z,93.70
2018-04-08T18:31:30.763Z,93.50
2018-04-08T18:33:59.127Z,93.90
2018-04-08T18:36:27.806Z,94.00
2018-04-08T18:38:56.130Z,94.20
2018-04-08T18:41:25.198Z,94.40
2018-04-08T18:43:53.535Z,94.60
2018-04-08T18:46:22.616Z,95.00
2018-04-08T18:48:50.953Z,94.90
2018-04-08T18:51:19.272Z,95.80
2018-04-08T18:53:47.600Z,96.30
2018-04-08T18:56:15.904Z,96.00
2018-04-08T18:58:44.430Z,96.20
2018-04-08T19:01:12.789Z,97.20
2018-04-08T19:03:41.115Z,97.80
2018-04-08T19:06:09.492Z,97.70
2018-04-08T19:08:37.846Z,98.30
2018-04-08T19:11:06.153Z,99.80
2018-04-08T19:13:34.466Z,99.90
2018-04-08T19:16:02.816Z,99.90
2018-04-08T19:18:31.132Z,99.90
2018-04-08T19:20:59.483Z,99.90
2018-04-08T19:23:27.808Z,99.90
2018-04-08T19:25:56.152Z,99.90
2018-04-08T19:28:24.452Z,99.90
2018-04-08T19:30:53.547Z,99.90
2018-04-08T19:33:22.627Z,99.90
2018-04-08T19:35:50.958Z,99.90
2018-04-08T19:38:19.267Z,99.90
2018-04-08T19:40:47.596Z,99.90
2018-04-08T19:43:15.902Z,99.90
2018-04-08T19:45:44.224Z,99.90
2018-04-08T19:48:13.300Z,99.90
2018-04-08T19:50:41.623Z,99.90
2018-04-08T19:53:10.056Z,99.90
2018-04-08T19:55:38.416Z,99.90
2018-04-08T19:58:06.718Z,99.90
2018-04-08T20:00:35.936Z,99.90
2018-04-08T20:03:05.013Z,99.90
2018-04-08T20:05:33.344Z,99.90
2018-04-08T20:08:01.650Z,99.90
2018-04-08T20:10:29.980Z,99.90
2018-04-08T20:12:59.048Z,99.90
2018-04-08T20:15:38.275Z,99.90
2018-04-08T20:18:06.591Z,99.90
2018-04-08T20:20:34.924Z,99.90
2018-04-08T20:23:03.222Z,99.90
2018-04-08T20:25:31.528Z,99.90
2018-04-08T20:27:59.859Z,99.90
2018-04-08T20:30:28.282Z,99.90
2018-04-08T20:32:56.631Z,99.90
2018-04-08T20:35:24.934Z,99.90
2018-04-08T20:37:53.259Z,99.90
2018-04-08T20:40:21.611Z,99.90
2018-04-08T20:42:56.730Z,99.90
2018-04-08T20:45:25.051Z,99.90
2018-04-08T20:47:53.377Z,99.90
2018-04-08T20:50:22.467Z,99.90
2018-04-08T20:52:51.563Z,99.90
2018-04-08T20:55:20.627Z,99.90
2018-04-08T20:57:50.455Z,99.90
2018-04-08T21:00:18.775Z,99.90
2018-04-08T21:02:47.099Z,99.90
2018-04-08T21:05:15.412Z,99.90
2018-04-08T21:07:43.740Z,99.90
2018-04-08T21:10:12.052Z,99.90
2018-04-08T21:12:41.142Z,99.90
2018-04-08T21:15:09.448Z,99.90
2018-04-08T21:17:37.782Z,99.90
2018-04-08T21:20:06.682Z,99.90
2018-04-08T21:22:35.025Z,99.90
2018-04-08T21:25:03.329Z,99.90
2018-04-08T21:27:33.139Z,99.90
2018-04-08T21:30:01.475Z,99.90
2018-04-08T21:32:29.794Z,99.90
2018-04-08T21:34:58.121Z,99.90
2018-04-08T21:37:26.420Z,99.90
2018-04-08T21:39:54.758Z,99.90
2018-04-08T21:42:23.830Z,99.90
2018-04-08T21:44:52.155Z,99.90
2018-04-08T21:47:20.455Z,99.90
2018-04-08T21:49:48.802Z,99.90
2018-04-08T21:52:17.117Z,99.90
2018-04-08T21:54:45.505Z,99.90
2018-04-08T21:57:13.798Z,99.90
2018-04-08T21:59:42.141Z,99.90
2018-04-08T22:02:10.455Z,99.90
2018-04-08T22:04:38.787Z,99.90
2018-04-08T22:07:07.854Z,99.90
2018-04-08T22:09:36.941Z,99.90
2018-04-08T22:12:06.005Z,99.90
2018-04-08T22:14:34.345Z,99.90
2018-04-08T22:17:02.648Z,99.90
2018-04-08T22:19:31.715Z,99.90
2018-04-08T22:22:00.037Z,99.90
2018-04-08T22:24:28.336Z,99.90
2018-04-08T22:26:56.655Z,99.90
2018-04-08T22:29:24.958Z,99.90
2018-04-08T22:31:53.274Z,99.90
2018-04-08T22:34:22.346Z,99.90
2018-04-08T22:36:50.682Z,99.90
2018-04-08T22:39:18.983Z,99.90
2018-04-08T22:41:47.321Z,99.90
2018-04-08T22:44:15.621Z,99.90
2018-04-08T22:46:43.937Z,99.90
2018-04-08T22:49:12.251Z,99.90
